Etusivu
METAR-TAF:

METAR-TAF

Lentoasemat :

Toussus-le-Noble, Ranska

Leveyspiiri: 48-46N, Pituuspiiri: 002-06E, korkeus merenpinnasta: 164 m

Tämänhetkinen sää

Tämä raportti tehtiin 34 minuuttia sitten, kello 15.30 UTC
Tuuli 8 kn pohjoisesta/koillisesta, vaihdellen pohjoisen/luoteen ja idän/koillisen välillä
Lämpötila 16°C
Kosteus 45%
Ilmanpaine 1031 hPa
Näkyvyys 10 km tai enemmän
ei pilviä alle 1500 m:ssä eikä cumulonimbus-pilviä

METAR: LFPN 211530Z AUTO 03008KT 340V070 CAVOK 16/04 Q1031 NOSIG

Aika: 17:04 (16:04 UTC)

Sääennuste

Tämä raportti tehtiin 2 tuntia ja 4 minuuttia sitten, kello 14.00 UTC
Ennuste voimassa 21. päivästä klo 15 UTC - 21. päivään klo 24 UTC
Tuuli 5 kn pohjoisesta/koillisesta
Näkyvyys 10 km tai enemmän
ei pilviä alle 1500 m:ssä eikä cumulonimbus-pilviä

TAF: LFPN 211400Z 2115/2124 03005KT CAVOK

Säähavainnot ja -ennusteet yli 4000 lentoasemalta (METAR- ja TAF-raportit).

Käytössä olevat sääasemat on merkitty karttaan keltaisilla ja punaisilla pisteillä.

Aseta hiiri pisteen päälle nähdäksesi sääaseman nimen.

Klikkaa sitten nähdäksesi säähavainnot ja -ennusteet.

Kartan vaihtaminen: klikkaa mustalla rastilla varustettuja vihreitä pisteitä, niin voit zoomata sisään; viivalla varustettua vihreää pistettä, niin voit zoomata ulos tai vihreitä nuolia, niin pääset viereisille kartoille.


METAR-TAF: